sensor_id;sensor_type;location;lat;lon;timestamp;temperature;humidity
21092;DHT22;10704;42.678;23.288;2023-05-15T00:00:13;10.60;99.90
21092;DHT22;10704;42.678;23.288;2023-05-15T00:02:41;10.50;99.90
21092;DHT22;10704;42.678;23.288;2023-05-15T00:05:09;10.50;99.90
21092;DHT22;10704;42.678;23.288;2023-05-15T00:07:36;10.50;99.90
21092;DHT22;10704;42.678;23.288;2023-05-15T00:10:02;10.50;99.90
21092;DHT22;10704;42.678;23.288;2023-05-15T00:12:28;10.50;99.90
21092;DHT22;10704;42.678;23.288;2023-05-15T00:14:54;10.50;99.90
21092;DHT22;10704;42.678;23.288;2023-05-15T00:17:20;10.60;99.90
21092;DHT22;10704;42.678;23.288;2023-05-15T00:19:45;10.60;99.90
21092;DHT22;10704;42.678;23.288;2023-05-15T00:22:11;10.50;99.90
21092;DHT22;10704;42.678;23.288;2023-05-15T00:24:37;10.60;99.90
21092;DHT22;10704;42.678;23.288;2023-05-15T00:27:03;10.50;99.90
21092;DHT22;10704;42.678;23.288;2023-05-15T00:29:30;10.40;99.90
21092;DHT22;10704;42.678;23.288;2023-05-15T00:31:55;10.30;99.90
21092;DHT22;10704;42.678;23.288;2023-05-15T00:34:24;10.20;99.90
21092;DHT22;10704;42.678;23.288;2023-05-15T00:36:50;10.20;99.90
21092;DHT22;10704;42.678;23.288;2023-05-15T00:39:16;10.20;99.90
21092;DHT22;10704;42.678;23.288;2023-05-15T00:41:42;10.20;99.90
21092;DHT22;10704;42.678;23.288;2023-05-15T00:44:10;10.20;99.90
21092;DHT22;10704;42.678;23.288;2023-05-15T00:46:37;10.10;99.90
21092;DHT22;10704;42.678;23.288;2023-05-15T00:49:04;10.10;99.90
21092;DHT22;10704;42.678;23.288;2023-05-15T00:51:31;10.10;99.90
21092;DHT22;10704;42.678;23.288;2023-05-15T00:53:58;10.30;99.90
21092;DHT22;10704;42.678;23.288;2023-05-15T00:56:26;10.30;99.90
21092;DHT22;10704;42.678;23.288;2023-05-15T00:58:56;10.10;99.90
21092;DHT22;10704;42.678;23.288;2023-05-15T01:01:24;10.00;99.90
21092;DHT22;10704;42.678;23.288;2023-05-15T01:03:50;10.00;99.90
21092;DHT22;10704;42.678;23.288;2023-05-15T01:06:16;10.10;99.90
21092;DHT22;10704;42.678;23.288;2023-05-15T01:08:46;10.10;99.90
21092;DHT22;10704;42.678;23.288;2023-05-15T01:11:13;10.10;99.90
21092;DHT22;10704;42.678;23.288;2023-05-15T01:13:40;10.10;99.90
21092;DHT22;10704;42.678;23.288;2023-05-15T01:16:07;10.10;99.90
21092;DHT22;10704;42.678;23.288;2023-05-15T01:18:33;10.10;99.90
21092;DHT22;10704;42.678;23.288;2023-05-15T01:30:02;10.00;99.90
21092;DHT22;10704;42.678;23.288;2023-05-15T01:35:26;10.10;99.90
21092;DHT22;10704;42.678;23.288;2023-05-15T01:38:21;9.90;99.90
21092;DHT22;10704;42.678;23.288;2023-05-15T01:40:58;9.90;99.90
21092;DHT22;10704;42.678;23.288;2023-05-15T01:43:28;9.80;99.90
21092;DHT22;10704;42.678;23.288;2023-05-15T01:45:57;9.70;99.90
21092;DHT22;10704;42.678;23.288;2023-05-15T01:48:25;9.70;99.90
21092;DHT22;10704;42.678;23.288;2023-05-15T01:50:57;9.70;99.90
21092;DHT22;10704;42.678;23.288;2023-05-15T01:53:26;9.70;99.90
21092;DHT22;10704;42.678;23.288;2023-05-15T01:55:53;9.70;99.90
21092;DHT22;10704;42.678;23.288;2023-05-15T01:58:21;9.70;99.90
21092;DHT22;10704;42.678;23.288;2023-05-15T02:00:49;9.70;99.90
21092;DHT22;10704;42.678;23.288;2023-05-15T02:03:16;9.80;99.90
21092;DHT22;10704;42.678;23.288;2023-05-15T02:05:43;9.80;99.90
21092;DHT22;10704;42.678;23.288;2023-05-15T02:08:14;9.80;99.90
21092;DHT22;10704;42.678;23.288;2023-05-15T02:10:42;9.80;99.90
21092;DHT22;10704;42.678;23.288;2023-05-15T02:13:09;9.80;99.90
21092;DHT22;10704;42.678;23.288;2023-05-15T02:15:36;9.80;99.90
21092;DHT22;10704;42.678;23.288;2023-05-15T02:18:03;9.80;99.90
21092;DHT22;10704;42.678;23.288;2023-05-15T02:20:29;9.70;99.90
21092;DHT22;10704;42.678;23.288;2023-05-15T02:22:55;9.60;99.90
21092;DHT22;10704;42.678;23.288;2023-05-15T02:26:06;9.60;99.90
21092;DHT22;10704;42.678;23.288;2023-05-15T02:28:28;9.60;99.90
21092;DHT22;10704;42.678;23.288;2023-05-15T02:31:02;9.60;99.90
21092;DHT22;10704;42.678;23.288;2023-05-15T02:36:10;9.70;99.90
21092;DHT22;10704;42.678;23.288;2023-05-15T02:38:52;9.70;99.90
21092;DHT22;10704;42.678;23.288;2023-05-15T02:41:19;9.70;99.90
21092;DHT22;10704;42.678;23.288;2023-05-15T02:43:49;9.70;99.90
21092;DHT22;10704;42.678;23.288;2023-05-15T02:46:17;9.70;99.90
21092;DHT22;10704;42.678;23.288;2023-05-15T02:48:44;9.70;99.90
21092;DHT22;10704;42.678;23.288;2023-05-15T02:51:12;9.80;99.90
21092;DHT22;10704;42.678;23.288;2023-05-15T02:53:39;9.80;99.90
21092;DHT22;10704;42.678;23.288;2023-05-15T02:56:06;9.80;99.90
21092;DHT22;10704;42.678;23.288;2023-05-15T02:58:33;9.80;99.90
21092;DHT22;10704;42.678;23.288;2023-05-15T03:00:58;9.80;99.90
21092;DHT22;10704;42.678;23.288;2023-05-15T03:03:25;9.90;99.90
21092;DHT22;10704;42.678;23.288;2023-05-15T03:05:51;10.00;99.90
21092;DHT22;10704;42.678;23.288;2023-05-15T03:08:17;10.10;99.90
21092;DHT22;10704;42.678;23.288;2023-05-15T03:10:43;10.00;99.90
21092;DHT22;10704;42.678;23.288;2023-05-15T03:13:09;10.00;99.90
21092;DHT22;10704;42.678;23.288;2023-05-15T03:15:35;10.00;99.90
21092;DHT22;10704;42.678;23.288;2023-05-15T03:18:01;10.10;99.90
21092;DHT22;10704;42.678;23.288;2023-05-15T03:20:28;10.20;99.90
21092;DHT22;10704;42.678;23.288;2023-05-15T03:22:54;10.20;99.90
21092;DHT22;10704;42.678;23.288;2023-05-15T03:25:21;10.20;99.90
21092;DHT22;10704;42.678;23.288;2023-05-15T03:27:46;10.10;99.90
21092;DHT22;10704;42.678;23.288;2023-05-15T03:30:12;10.30;99.90
21092;DHT22;10704;42.678;23.288;2023-05-15T03:32:38;10.30;99.90
21092;DHT22;10704;42.678;23.288;2023-05-15T03:35:04;10.30;99.90
21092;DHT22;10704;42.678;23.288;2023-05-15T03:37:31;10.40;99.90
21092;DHT22;10704;42.678;23.288;2023-05-15T03:39:57;10.40;99.90
21092;DHT22;10704;42.678;23.288;2023-05-15T03:42:22;10.40;99.90
21092;DHT22;10704;42.678;23.288;2023-05-15T03:44:49;10.40;99.90
21092;DHT22;10704;42.678;23.288;2023-05-15T03:47:15;10.40;99.90
21092;DHT22;10704;42.678;23.288;2023-05-15T03:49:42;10.30;99.90
21092;DHT22;10704;42.678;23.288;2023-05-15T03:52:08;10.30;99.90
21092;DHT22;10704;42.678;23.288;2023-05-15T03:54:34;10.30;99.90
21092;DHT22;10704;42.678;23.288;2023-05-15T03:57:00;10.30;99.90
21092;DHT22;10704;42.678;23.288;2023-05-15T03:59:26;10.30;99.90
21092;DHT22;10704;42.678;23.288;2023-05-15T04:01:52;10.20;99.90
21092;DHT22;10704;42.678;23.288;2023-05-15T04:04:18;10.20;99.90
21092;DHT22;10704;42.678;23.288;2023-05-15T04:06:43;10.20;99.90
21092;DHT22;10704;42.678;23.288;2023-05-15T04:09:09;10.20;99.90
21092;DHT22;10704;42.678;23.288;2023-05-15T04:11:35;10.30;99.90
21092;DHT22;10704;42.678;23.288;2023-05-15T04:14:01;10.40;99.90
21092;DHT22;10704;42.678;23.288;2023-05-15T04:16:27;10.40;99.90
21092;DHT22;10704;42.678;23.288;2023-05-15T04:18:52;10.40;99.90
21092;DHT22;10704;42.678;23.288;2023-05-15T04:21:18;10.40;99.90
21092;DHT22;10704;42.678;23.288;2023-05-15T04:23:44;10.40;99.90
21092;DHT22;10704;42.678;23.288;2023-05-15T04:26:10;10.40;99.90
21092;DHT22;10704;42.678;23.288;2023-05-15T04:28:36;10.40;99.90
21092;DHT22;10704;42.678;23.288;2023-05-15T04:31:01;10.60;99.90
21092;DHT22;10704;42.678;23.288;2023-05-15T04:33:27;10.60;99.90
21092;DHT22;10704;42.678;23.288;2023-05-15T04:35:53;10.60;99.90
21092;DHT22;10704;42.678;23.288;2023-05-15T04:38:19;10.60;99.90
21092;DHT22;10704;42.678;23.288;2023-05-15T04:40:45;10.50;99.90
21092;DHT22;10704;42.678;23.288;2023-05-15T04:43:11;10.50;99.90
21092;DHT22;10704;42.678;23.288;2023-05-15T04:45:36;10.50;99.90
21092;DHT22;10704;42.678;23.288;2023-05-15T04:48:03;10.50;99.90
21092;DHT22;10704;42.678;23.288;2023-05-15T04:50:28;10.50;99.90
21092;DHT22;10704;42.678;23.288;2023-05-15T04:52:54;10.60;99.90
21092;DHT22;10704;42.678;23.288;2023-05-15T04:55:20;10.60;99.90
21092;DHT22;10704;42.678;23.288;2023-05-15T04:57:46;10.60;99.90
21092;DHT22;10704;42.678;23.288;2023-05-15T05:00:13;10.60;99.90
21092;DHT22;10704;42.678;23.288;2023-05-15T05:02:39;10.60;99.90
21092;DHT22;10704;42.678;23.288;2023-05-15T05:05:06;10.60;99.90
21092;DHT22;10704;42.678;23.288;2023-05-15T05:07:33;10.60;99.90
21092;DHT22;10704;42.678;23.288;2023-05-15T05:09:59;10.60;99.90
21092;DHT22;10704;42.678;23.288;2023-05-15T05:12:25;10.70;99.90
21092;DHT22;10704;42.678;23.288;2023-05-15T05:14:51;10.80;99.90
21092;DHT22;10704;42.678;23.288;2023-05-15T05:17:16;10.90;99.90
21092;DHT22;10704;42.678;23.288;2023-05-15T05:19:43;11.00;99.90
21092;DHT22;10704;42.678;23.288;2023-05-15T05:22:09;11.10;99.90
21092;DHT22;10704;42.678;23.288;2023-05-15T05:24:36;11.00;99.90
21092;DHT22;10704;42.678;23.288;2023-05-15T05:27:03;11.10;99.90
21092;DHT22;10704;42.678;23.288;2023-05-15T05:29:29;11.10;99.90
21092;DHT22;10704;42.678;23.288;2023-05-15T05:31:55;11.30;99.90
21092;DHT22;10704;42.678;23.288;2023-05-15T05:34:21;11.40;99.90
21092;DHT22;10704;42.678;23.288;2023-05-15T05:36:48;11.60;99.90
21092;DHT22;10704;42.678;23.288;2023-05-15T05:39:14;11.60;99.90
21092;DHT22;10704;42.678;23.288;2023-05-15T05:41:44;11.60;99.90
21092;DHT22;10704;42.678;23.288;2023-05-15T05:44:10;11.60;99.90
21092;DHT22;10704;42.678;23.288;2023-05-15T05:46:36;11.70;99.90
21092;DHT22;10704;42.678;23.288;2023-05-15T05:49:02;11.70;99.90
21092;DHT22;10704;42.678;23.288;2023-05-15T05:51:28;11.70;99.90
21092;DHT22;10704;42.678;23.288;2023-05-15T05:53:53;11.80;99.90
21092;DHT22;10704;42.678;23.288;2023-05-15T05:56:19;12.00;99.90
21092;DHT22;10704;42.678;23.288;2023-05-15T05:58:46;12.10;99.90
21092;DHT22;10704;42.678;23.288;2023-05-15T06:01:12;12.30;99.90
21092;DHT22;10704;42.678;23.288;2023-05-15T06:03:38;12.40;99.90
21092;DHT22;10704;42.678;23.288;2023-05-15T06:06:04;12.40;99.90
21092;DHT22;10704;42.678;23.288;2023-05-15T06:08:30;12.30;99.90
21092;DHT22;10704;42.678;23.288;2023-05-15T06:10:57;12.40;99.90
21092;DHT22;10704;42.678;23.288;2023-05-15T06:13:22;12.40;99.90
21092;DHT22;10704;42.678;23.288;2023-05-15T06:15:49;12.40;99.90
21092;DHT22;10704;42.678;23.288;2023-05-15T06:18:15;12.40;99.90
21092;DHT22;10704;42.678;23.288;2023-05-15T06:20:41;12.40;99.90
21092;DHT22;10704;42.678;23.288;2023-05-15T06:23:08;12.40;99.90
21092;DHT22;10704;42.678;23.288;2023-05-15T06:25:34;12.40;99.90
21092;DHT22;10704;42.678;23.288;2023-05-15T06:28:01;12.60;99.90
21092;DHT22;10704;42.678;23.288;2023-05-15T06:30:26;12.70;99.90
21092;DHT22;10704;42.678;23.288;2023-05-15T06:32:52;13.00;99.90
21092;DHT22;10704;42.678;23.288;2023-05-15T06:35:18;13.20;99.90
21092;DHT22;10704;42.678;23.288;2023-05-15T06:37:44;13.50;99.90
21092;DHT22;10704;42.678;23.288;2023-05-15T06:40:14;14.00;99.90
21092;DHT22;10704;42.678;23.288;2023-05-15T06:42:40;14.20;99.90
21092;DHT22;10704;42.678;23.288;2023-05-15T06:45:06;14.30;99.90
21092;DHT22;10704;42.678;23.288;2023-05-15T06:47:32;14.50;99.90
21092;DHT22;10704;42.678;23.288;2023-05-15T06:49:58;14.40;99.90
21092;DHT22;10704;42.678;23.288;2023-05-15T06:52:24;14.50;99.90
21092;DHT22;10704;42.678;23.288;2023-05-15T06:54:50;14.70;99.90
21092;DHT22;10704;42.678;23.288;2023-05-15T06:57:17;15.00;99.90
21092;DHT22;10704;42.678;23.288;2023-05-15T06:59:43;15.20;99.90
21092;DHT22;10704;42.678;23.288;2023-05-15T07:02:09;15.20;99.90
21092;DHT22;10704;42.678;23.288;2023-05-15T07:04:35;15.30;99.90
21092;DHT22;10704;42.678;23.288;2023-05-15T07:07:01;15.40;99.90
21092;DHT22;10704;42.678;23.288;2023-05-15T07:09:26;15.50;99.90
21092;DHT22;10704;42.678;23.288;2023-05-15T07:11:52;15.50;99.90
21092;DHT22;10704;42.678;23.288;2023-05-15T07:14:18;15.50;99.90
21092;DHT22;10704;42.678;23.288;2023-05-15T07:16:44;15.60;99.90
21092;DHT22;10704;42.678;23.288;2023-05-15T07:19:12;15.50;99.90
21092;DHT22;10704;42.678;23.288;2023-05-15T07:21:40;15.10;99.90
21092;DHT22;10704;42.678;23.288;2023-05-15T07:24:06;15.00;99.90
21092;DHT22;10704;42.678;23.288;2023-05-15T07:26:33;15.00;99.90
21092;DHT22;10704;42.678;23.288;2023-05-15T07:28:59;15.10;99.90
21092;DHT22;10704;42.678;23.288;2023-05-15T07:31:25;15.10;99.90
21092;DHT22;10704;42.678;23.288;2023-05-15T07:33:51;15.10;99.90
21092;DHT22;10704;42.678;23.288;2023-05-15T07:36:17;15.10;99.90
21092;DHT22;10704;42.678;23.288;2023-05-15T07:38:42;15.20;99.90
21092;DHT22;10704;42.678;23.288;2023-05-15T07:41:08;15.20;99.90
21092;DHT22;10704;42.678;23.288;2023-05-15T07:43:34;15.40;99.90
21092;DHT22;10704;42.678;23.288;2023-05-15T07:46:00;15.60;99.90
21092;DHT22;10704;42.678;23.288;2023-05-15T07:48:26;15.60;99.90
21092;DHT22;10704;42.678;23.288;2023-05-15T07:50:52;15.40;99.90
21092;DHT22;10704;42.678;23.288;2023-05-15T07:53:19;15.10;99.90
21092;DHT22;10704;42.678;23.288;2023-05-15T07:55:46;14.90;99.90
21092;DHT22;10704;42.678;23.288;2023-05-15T07:58:12;14.70;99.90
21092;DHT22;10704;42.678;23.288;2023-05-15T08:00:38;14.90;99.90
21092;DHT22;10704;42.678;23.288;2023-05-15T08:03:03;15.00;99.90
21092;DHT22;10704;42.678;23.288;2023-05-15T08:05:29;14.80;99.90
21092;DHT22;10704;42.678;23.288;2023-05-15T08:07:56;14.70;99.90
21092;DHT22;10704;42.678;23.288;2023-05-15T08:10:22;14.70;99.90
21092;DHT22;10704;42.678;23.288;2023-05-15T08:12:48;14.50;99.90
21092;DHT22;10704;42.678;23.288;2023-05-15T08:15:15;14.40;99.90
21092;DHT22;10704;42.678;23.288;2023-05-15T08:17:41;14.60;99.90
21092;DHT22;10704;42.678;23.288;2023-05-15T08:20:08;14.70;99.90
21092;DHT22;10704;42.678;23.288;2023-05-15T08:22:34;14.80;99.90
21092;DHT22;10704;42.678;23.288;2023-05-15T08:25:00;14.70;99.90
21092;DHT22;10704;42.678;23.288;2023-05-15T08:27:28;14.80;99.90
21092;DHT22;10704;42.678;23.288;2023-05-15T08:29:54;14.70;99.90
21092;DHT22;10704;42.678;23.288;2023-05-15T08:32:20;14.50;99.90
21092;DHT22;10704;42.678;23.288;2023-05-15T08:34:46;14.50;99.90
21092;DHT22;10704;42.678;23.288;2023-05-15T08:37:12;14.40;99.90
21092;DHT22;10704;42.678;23.288;2023-05-15T08:39:37;14.50;99.90
21092;DHT22;10704;42.678;23.288;2023-05-15T08:42:19;14.60;99.90
21092;DHT22;10704;42.678;23.288;2023-05-15T08:44:46;14.80;99.90
21092;DHT22;10704;42.678;23.288;2023-05-15T08:47:17;15.10;99.90
21092;DHT22;10704;42.678;23.288;2023-05-15T08:49:50;15.40;99.90
21092;DHT22;10704;42.678;23.288;2023-05-15T08:52:18;15.10;99.90
21092;DHT22;10704;42.678;23.288;2023-05-15T08:54:44;15.00;99.90
21092;DHT22;10704;42.678;23.288;2023-05-15T08:57:12;15.00;99.90
21092;DHT22;10704;42.678;23.288;2023-05-15T08:59:39;14.80;99.90
21092;DHT22;10704;42.678;23.288;2023-05-15T09:02:05;14.70;99.90
21092;DHT22;10704;42.678;23.288;2023-05-15T09:04:31;14.90;99.90
21092;DHT22;10704;42.678;23.288;2023-05-15T09:06:59;15.00;99.90
21092;DHT22;10704;42.678;23.288;2023-05-15T09:09:26;14.90;99.90
21092;DHT22;10704;42.678;23.288;2023-05-15T09:11:54;14.90;99.90
21092;DHT22;10704;42.678;23.288;2023-05-15T09:14:20;14.90;99.90
21092;DHT22;10704;42.678;23.288;2023-05-15T09:16:48;14.80;99.90
21092;DHT22;10704;42.678;23.288;2023-05-15T09:19:18;15.00;99.90
21092;DHT22;10704;42.678;23.288;2023-05-15T09:21:48;15.00;99.90
21092;DHT22;10704;42.678;23.288;2023-05-15T09:24:18;15.10;99.90
21092;DHT22;10704;42.678;23.288;2023-05-15T09:26:46;14.90;99.90
21092;DHT22;10704;42.678;23.288;2023-05-15T09:29:15;14.80;99.90
21092;DHT22;10704;42.678;23.288;2023-05-15T09:31:42;15.00;99.90
21092;DHT22;10704;42.678;23.288;2023-05-15T09:34:09;15.20;99.90
21092;DHT22;10704;42.678;23.288;2023-05-15T09:36:41;15.30;99.90
21092;DHT22;10704;42.678;23.288;2023-05-15T09:39:08;15.30;99.90
21092;DHT22;10704;42.678;23.288;2023-05-15T09:41:34;15.40;99.90
21092;DHT22;10704;42.678;23.288;2023-05-15T09:44:17;15.60;99.90
21092;DHT22;10704;42.678;23.288;2023-05-15T09:46:44;15.60;99.90
21092;DHT22;10704;42.678;23.288;2023-05-15T09:49:10;15.70;99.90
21092;DHT22;10704;42.678;23.288;2023-05-15T09:51:36;15.70;99.90
21092;DHT22;10704;42.678;23.288;2023-05-15T09:54:01;15.60;99.90
21092;DHT22;10704;42.678;23.288;2023-05-15T09:56:27;15.50;99.90
21092;DHT22;10704;42.678;23.288;2023-05-15T09:58:55;15.60;99.90
21092;DHT22;10704;42.678;23.288;2023-05-15T10:01:22;15.70;99.90
21092;DHT22;10704;42.678;23.288;2023-05-15T10:04:02;15.70;99.90
21092;DHT22;10704;42.678;23.288;2023-05-15T10:06:38;16.00;99.90
21092;DHT22;10704;42.678;23.288;2023-05-15T10:09:05;16.10;99.90
21092;DHT22;10704;42.678;23.288;2023-05-15T10:11:36;16.10;99.90
21092;DHT22;10704;42.678;23.288;2023-05-15T10:14:06;16.00;99.90
21092;DHT22;10704;42.678;23.288;2023-05-15T10:16:34;16.00;99.90
21092;DHT22;10704;42.678;23.288;2023-05-15T10:19:08;16.10;99.90
21092;DHT22;10704;42.678;23.288;2023-05-15T10:21:36;16.40;99.90
21092;DHT22;10704;42.678;23.288;2023-05-15T10:24:03;16.40;99.90
21092;DHT22;10704;42.678;23.288;2023-05-15T10:26:37;16.30;99.90
21092;DHT22;10704;42.678;23.288;2023-05-15T10:29:11;16.30;99.90
21092;DHT22;10704;42.678;23.288;2023-05-15T10:31:41;16.30;99.90
21092;DHT22;10704;42.678;23.288;2023-05-15T10:34:08;16.30;99.90
21092;DHT22;10704;42.678;23.288;2023-05-15T10:36:36;16.20;99.90
21092;DHT22;10704;42.678;23.288;2023-05-15T10:39:04;16.00;99.90
21092;DHT22;10704;42.678;23.288;2023-05-15T10:41:32;16.20;99.90
21092;DHT22;10704;42.678;23.288;2023-05-15T10:44:00;16.30;99.90
21092;DHT22;10704;42.678;23.288;2023-05-15T10:46:29;16.50;99.90
21092;DHT22;10704;42.678;23.288;2023-05-15T10:48:55;16.60;99.90
21092;DHT22;10704;42.678;23.288;2023-05-15T10:51:29;16.50;99.90
21092;DHT22;10704;42.678;23.288;2023-05-15T10:53:56;16.40;99.90
21092;DHT22;10704;42.678;23.288;2023-05-15T10:56:29;16.30;99.90
21092;DHT22;10704;42.678;23.288;2023-05-15T10:58:56;16.10;99.90
21092;DHT22;10704;42.678;23.288;2023-05-15T11:01:31;16.20;99.90
21092;DHT22;10704;42.678;23.288;2023-05-15T11:04:08;16.10;99.90
21092;DHT22;10704;42.678;23.288;2023-05-15T11:06:36;16.10;99.90
21092;DHT22;10704;42.678;23.288;2023-05-15T11:11:57;16.00;99.90
21092;DHT22;10704;42.678;23.288;2023-05-15T11:17:05;16.00;99.90
21092;DHT22;10704;42.678;23.288;2023-05-15T11:19:36;15.90;99.90
21092;DHT22;10704;42.678;23.288;2023-05-15T11:25:06;16.30;99.90
21092;DHT22;10704;42.678;23.288;2023-05-15T11:27:38;16.30;99.90
21092;DHT22;10704;42.678;23.288;2023-05-15T11:38:03;16.80;99.90
21092;DHT22;10704;42.678;23.288;2023-05-15T11:40:31;17.20;99.90
21092;DHT22;10704;42.678;23.288;2023-05-15T11:43:15;17.30;99.90
21092;DHT22;10704;42.678;23.288;2023-05-15T11:45:44;17.30;99.90
21092;DHT22;10704;42.678;23.288;2023-05-15T11:48:15;17.50;99.90
21092;DHT22;10704;42.678;23.288;2023-05-15T11:50:41;17.90;99.90
21092;DHT22;10704;42.678;23.288;2023-05-15T11:53:09;18.20;99.90
21092;DHT22;10704;42.678;23.288;2023-05-15T11:55:37;18.30;99.90
21092;DHT22;10704;42.678;23.288;2023-05-15T11:58:04;18.30;99.90
21092;DHT22;10704;42.678;23.288;2023-05-15T12:00:30;18.40;99.90
21092;DHT22;10704;42.678;23.288;2023-05-15T12:02:56;18.20;99.90
21092;DHT22;10704;42.678;23.288;2023-05-15T12:05:22;18.00;99.90
21092;DHT22;10704;42.678;23.288;2023-05-15T12:07:48;17.80;99.90
21092;DHT22;10704;42.678;23.288;2023-05-15T12:10:14;17.50;99.90
21092;DHT22;10704;42.678;23.288;2023-05-15T12:12:44;17.00;99.90
21092;DHT22;10704;42.678;23.288;2023-05-15T12:15:15;17.10;99.90
21092;DHT22;10704;42.678;23.288;2023-05-15T12:17:43;17.20;99.90
21092;DHT22;10704;42.678;23.288;2023-05-15T12:20:17;17.40;99.90
21092;DHT22;10704;42.678;23.288;2023-05-15T12:22:43;17.50;99.90
21092;DHT22;10704;42.678;23.288;2023-05-15T12:25:10;17.60;99.90
21092;DHT22;10704;42.678;23.288;2023-05-15T12:27:38;17.60;99.90
21092;DHT22;10704;42.678;23.288;2023-05-15T12:30:05;17.70;99.90
21092;DHT22;10704;42.678;23.288;2023-05-15T12:32:33;17.80;99.90
21092;DHT22;10704;42.678;23.288;2023-05-15T12:35:00;17.80;99.90
21092;DHT22;10704;42.678;23.288;2023-05-15T12:37:26;18.10;99.90
21092;DHT22;10704;42.678;23.288;2023-05-15T12:39:59;18.50;99.90
21092;DHT22;10704;42.678;23.288;2023-05-15T12:42:25;19.30;99.90
21092;DHT22;10704;42.678;23.288;2023-05-15T12:44:55;19.80;99.90
21092;DHT22;10704;42.678;23.288;2023-05-15T12:47:22;19.90;99.90
21092;DHT22;10704;42.678;23.288;2023-05-15T12:49:49;20.20;99.90
21092;DHT22;10704;42.678;23.288;2023-05-15T12:52:15;20.20;99.90
21092;DHT22;10704;42.678;23.288;2023-05-15T12:54:43;20.40;99.90
21092;DHT22;10704;42.678;23.288;2023-05-15T12:57:10;20.60;99.90
21092;DHT22;10704;42.678;23.288;2023-05-15T12:59:37;20.50;99.90
21092;DHT22;10704;42.678;23.288;2023-05-15T13:02:08;19.80;99.90
21092;DHT22;10704;42.678;23.288;2023-05-15T13:04:35;19.70;99.90
21092;DHT22;10704;42.678;23.288;2023-05-15T13:07:00;20.40;99.90
21092;DHT22;10704;42.678;23.288;2023-05-15T13:09:26;20.50;99.90
21092;DHT22;10704;42.678;23.288;2023-05-15T13:11:55;20.80;99.90
21092;DHT22;10704;42.678;23.288;2023-05-15T13:14:21;21.00;99.90
21092;DHT22;10704;42.678;23.288;2023-05-15T13:16:51;21.40;99.90
21092;DHT22;10704;42.678;23.288;2023-05-15T13:19:17;21.50;99.90
21092;DHT22;10704;42.678;23.288;2023-05-15T13:21:43;21.20;99.90
21092;DHT22;10704;42.678;23.288;2023-05-15T13:24:10;21.70;99.90
21092;DHT22;10704;42.678;23.288;2023-05-15T13:26:36;21.80;99.90
21092;DHT22;10704;42.678;23.288;2023-05-15T13:29:03;22.20;99.90
21092;DHT22;10704;42.678;23.288;2023-05-15T13:31:29;22.40;99.90
21092;DHT22;10704;42.678;23.288;2023-05-15T13:33:55;22.60;99.90
21092;DHT22;10704;42.678;23.288;2023-05-15T13:36:20;23.10;99.90
21092;DHT22;10704;42.678;23.288;2023-05-15T13:38:46;23.40;99.90
21092;DHT22;10704;42.678;23.288;2023-05-15T13:41:12;23.90;99.90
21092;DHT22;10704;42.678;23.288;2023-05-15T13:43:38;24.00;99.90
21092;DHT22;10704;42.678;23.288;2023-05-15T13:46:04;24.30;99.90
21092;DHT22;10704;42.678;23.288;2023-05-15T13:48:29;24.30;99.40
21092;DHT22;10704;42.678;23.288;2023-05-15T13:50:55;24.10;98.90
21092;DHT22;10704;42.678;23.288;2023-05-15T13:53:21;24.60;98.30
21092;DHT22;10704;42.678;23.288;2023-05-15T13:55:47;24.60;97.10
21092;DHT22;10704;42.678;23.288;2023-05-15T13:58:13;24.20;97.10
21092;DHT22;10704;42.678;23.288;2023-05-15T14:00:41;24.10;97.40
21092;DHT22;10704;42.678;23.288;2023-05-15T14:03:08;24.50;96.80
21092;DHT22;10704;42.678;23.288;2023-05-15T14:05:33;24.80;96.00
21092;DHT22;10704;42.678;23.288;2023-05-15T14:07:59;25.00;94.70
21092;DHT22;10704;42.678;23.288;2023-05-15T14:10:25;24.60;95.60
21092;DHT22;10704;42.678;23.288;2023-05-15T14:12:51;24.60;95.10
21092;DHT22;10704;42.678;23.288;2023-05-15T14:15:17;24.80;93.80
21092;DHT22;10704;42.678;23.288;2023-05-15T14:17:43;24.20;93.80
21092;DHT22;10704;42.678;23.288;2023-05-15T14:20:11;24.00;95.10
21092;DHT22;10704;42.678;23.288;2023-05-15T14:22:38;24.00;95.90
21092;DHT22;10704;42.678;23.288;2023-05-15T14:25:05;23.60;96.70
21092;DHT22;10704;42.678;23.288;2023-05-15T14:27:31;23.80;97.40
21092;DHT22;10704;42.678;23.288;2023-05-15T14:29:57;23.70;97.90
21092;DHT22;10704;42.678;23.288;2023-05-15T14:32:23;23.40;97.60
21092;DHT22;10704;42.678;23.288;2023-05-15T14:34:49;23.40;98.30
21092;DHT22;10704;42.678;23.288;2023-05-15T14:37:16;23.50;98.50
21092;DHT22;10704;42.678;23.288;2023-05-15T14:39:42;23.40;99.60
21092;DHT22;10704;42.678;23.288;2023-05-15T14:42:10;23.70;99.20
21092;DHT22;10704;42.678;23.288;2023-05-15T14:47:20;23.60;97.80
21092;DHT22;10704;42.678;23.288;2023-05-15T14:49:46;22.80;99.70
21092;DHT22;10704;42.678;23.288;2023-05-15T14:52:11;22.40;99.90
21092;DHT22;10704;42.678;23.288;2023-05-15T14:54:38;22.10;99.90
21092;DHT22;10704;42.678;23.288;2023-05-15T14:57:04;22.10;99.90
21092;DHT22;10704;42.678;23.288;2023-05-15T14:59:30;22.00;99.90
21092;DHT22;10704;42.678;23.288;2023-05-15T15:01:56;21.70;99.90
21092;DHT22;10704;42.678;23.288;2023-05-15T15:04:22;21.60;99.90
21092;DHT22;10704;42.678;23.288;2023-05-15T15:06:48;21.60;99.90
21092;DHT22;10704;42.678;23.288;2023-05-15T15:09:14;21.50;99.90
21092;DHT22;10704;42.678;23.288;2023-05-15T15:11:40;21.60;99.90
21092;DHT22;10704;42.678;23.288;2023-05-15T15:14:06;21.70;99.90
21092;DHT22;10704;42.678;23.288;2023-05-15T15:16:32;21.60;99.90
21092;DHT22;10704;42.678;23.288;2023-05-15T15:18:58;21.60;99.90
21092;DHT22;10704;42.678;23.288;2023-05-15T15:21:23;21.30;99.90
21092;DHT22;10704;42.678;23.288;2023-05-15T15:23:50;21.30;99.90
21092;DHT22;10704;42.678;23.288;2023-05-15T15:26:16;21.50;99.90
21092;DHT22;10704;42.678;23.288;2023-05-15T15:28:42;21.40;99.90
21092;DHT22;10704;42.678;23.288;2023-05-15T15:31:08;21.00;99.90
21092;DHT22;10704;42.678;23.288;2023-05-15T15:33:34;20.60;99.90
21092;DHT22;10704;42.678;23.288;2023-05-15T15:36:00;20.60;99.90
21092;DHT22;10704;42.678;23.288;2023-05-15T15:38:26;20.30;99.90
21092;DHT22;10704;42.678;23.288;2023-05-15T15:40:53;20.20;99.90
21092;DHT22;10704;42.678;23.288;2023-05-15T15:43:19;20.20;99.90
21092;DHT22;10704;42.678;23.288;2023-05-15T15:45:44;20.20;99.90
21092;DHT22;10704;42.678;23.288;2023-05-15T15:48:10;19.80;99.90
21092;DHT22;10704;42.678;23.288;2023-05-15T15:50:36;19.60;99.90